createdAt,value
2019-05-20T00:00:06.571Z,98.00
2019-05-20T00:02:41.238Z,98.30
2019-05-20T00:05:16.002Z,98.00
2019-05-20T00:07:50.635Z,98.40
2019-05-20T00:10:25.389Z,98.00
2019-05-20T00:13:00.034Z,97.90
2019-05-20T00:15:34.795Z,98.20
2019-05-20T00:18:09.587Z,97.70
2019-05-20T00:20:44.278Z,97.80
2019-05-20T00:23:19.009Z,97.80
2019-05-20T00:25:53.758Z,97.90
2019-05-20T00:28:28.542Z,97.80
2019-05-20T00:31:03.231Z,97.80
2019-05-20T00:33:38.003Z,97.70
2019-05-20T00:36:12.646Z,97.70
2019-05-20T00:38:49.077Z,97.60
2019-05-20T00:41:23.763Z,97.70
2019-05-20T00:43:58.482Z,97.50
2019-05-20T00:46:33.092Z,97.50
2019-05-20T00:49:07.883Z,97.70
2019-05-20T00:51:42.635Z,97.70
2019-05-20T00:54:17.495Z,98.00
2019-05-20T00:56:52.947Z,98.10
2019-05-20T00:59:27.608Z,98.10
2019-05-20T01:02:02.287Z,98.30
2019-05-20T01:04:37.013Z,98.30
2019-05-20T01:07:11.774Z,98.30
2019-05-20T01:09:46.575Z,98.10
2019-05-20T01:12:21.404Z,98.00
2019-05-20T01:14:56.245Z,97.90
2019-05-20T01:17:30.925Z,97.80
2019-05-20T01:20:06.921Z,97.70
2019-05-20T01:22:41.678Z,97.40
2019-05-20T01:25:16.468Z,97.30
2019-05-20T01:27:51.116Z,97.10
2019-05-20T01:30:25.880Z,97.80
2019-05-20T01:33:12.710Z,97.90
2019-05-20T01:35:36.991Z,98.00
2019-05-20T01:38:11.682Z,98.20
2019-05-20T01:40:46.412Z,98.10
2019-05-20T01:43:21.123Z,98.40
2019-05-20T01:45:55.815Z,98.70
2019-05-20T01:48:30.504Z,98.80
2019-05-20T01:51:05.291Z,98.80
2019-05-20T01:53:40.059Z,98.80
2019-05-20T01:56:14.703Z,98.50
2019-05-20T01:58:49.389Z,97.40
2019-05-20T02:01:24.073Z,97.60
2019-05-20T02:03:58.876Z,97.40
2019-05-20T02:06:33.701Z,97.20
2019-05-20T02:09:09.359Z,97.10
2019-05-20T02:11:44.146Z,97.40
2019-05-20T02:14:20.515Z,97.50
2019-05-20T02:16:55.223Z,97.00
2019-05-20T02:19:29.915Z,96.60
2019-05-20T02:22:04.714Z,96.20
2019-05-20T02:24:39.472Z,96.30
2019-05-20T02:27:14.257Z,96.30
2019-05-20T02:29:48.886Z,96.30
2019-05-20T02:32:24.575Z,96.00
2019-05-20T02:34:59.261Z,95.90
2019-05-20T02:37:34.049Z,95.60
2019-05-20T02:40:09.708Z,95.70
2019-05-20T02:42:44.428Z,95.90
2019-05-20T02:45:19.188Z,95.80
2019-05-20T02:47:53.994Z,95.40
2019-05-20T02:50:28.668Z,95.70
2019-05-20T02:53:03.486Z,95.80
2019-05-20T02:55:38.249Z,95.90
2019-05-20T02:58:13.054Z,95.80
2019-05-20T03:00:47.814Z,95.90
2019-05-20T03:03:22.607Z,95.80
2019-05-20T03:05:57.363Z,95.80
2019-05-20T03:08:32.175Z,95.20
2019-05-20T03:11:06.911Z,94.90
2019-05-20T03:13:41.640Z,94.90
2019-05-20T03:16:16.410Z,95.10
2019-05-20T03:18:51.203Z,95.30
2019-05-20T03:21:25.896Z,95.20
2019-05-20T03:24:00.689Z,95.70
2019-05-20T03:26:35.450Z,95.50
2019-05-20T03:29:10.254Z,94.90
2019-05-20T03:31:44.956Z,94.70
2019-05-20T03:34:44.156Z,93.90
2019-05-20T03:36:56.085Z,94.30
2019-05-20T03:39:31.704Z,94.20
2019-05-20T03:42:06.403Z,94.10
2019-05-20T03:44:41.110Z,95.30
2019-05-20T03:47:15.802Z,95.90
2019-05-20T03:49:50.587Z,95.70
2019-05-20T03:52:25.199Z,95.20
2019-05-20T03:54:59.926Z,94.70
2019-05-20T03:57:34.691Z,94.60
2019-05-20T04:00:10.205Z,94.60
2019-05-20T04:02:44.865Z,94.40
2019-05-20T04:05:19.583Z,94.30
2019-05-20T04:07:54.266Z,94.50
2019-05-20T04:10:28.977Z,94.80
2019-05-20T04:13:03.730Z,94.70
2019-05-20T04:15:38.454Z,94.70
2019-05-20T04:18:13.145Z,94.70
2019-05-20T04:20:47.943Z,95.00
2019-05-20T04:23:22.766Z,94.80
2019-05-20T04:25:57.575Z,95.00
2019-05-20T04:28:32.196Z,95.30
2019-05-20T04:31:06.928Z,94.80
2019-05-20T04:33:41.610Z,94.60
2019-05-20T04:36:16.425Z,94.80
2019-05-20T04:38:52.813Z,94.90
2019-05-20T04:41:27.600Z,95.00
2019-05-20T04:44:02.458Z,95.00
2019-05-20T04:46:37.330Z,94.80
2019-05-20T04:49:12.098Z,95.30
2019-05-20T04:51:46.882Z,95.90
2019-05-20T04:54:21.639Z,95.70
2019-05-20T04:56:56.311Z,95.60
2019-05-20T04:59:31.035Z,95.30
2019-05-20T05:02:05.836Z,94.60
2019-05-20T05:04:40.440Z,95.20
2019-05-20T05:07:15.234Z,95.20
2019-05-20T05:09:49.982Z,95.10
2019-05-20T05:12:24.844Z,94.50
2019-05-20T05:14:59.599Z,95.40
2019-05-20T05:17:34.393Z,95.80
2019-05-20T05:20:17.535Z,96.00
2019-05-20T05:22:45.911Z,95.80
2019-05-20T05:25:20.663Z,95.80
2019-05-20T05:27:55.457Z,95.30
2019-05-20T05:30:30.206Z,94.30
2019-05-20T05:33:05.011Z,93.50
2019-05-20T05:35:52.268Z,92.30
2019-05-20T05:38:16.926Z,92.40
2019-05-20T05:40:51.615Z,91.80
2019-05-20T05:43:26.332Z,92.20
2019-05-20T05:46:01.092Z,92.70
2019-05-20T05:48:35.822Z,93.80
2019-05-20T05:51:10.587Z,94.00
2019-05-20T05:53:45.271Z,93.20
2019-05-20T05:56:19.925Z,92.50
2019-05-20T05:58:54.718Z,92.50
2019-05-20T06:01:29.483Z,92.40
2019-05-20T06:04:04.285Z,92.40
2019-05-20T06:06:39.040Z,92.70
2019-05-20T06:09:13.842Z,92.50
2019-05-20T06:11:48.607Z,92.70
2019-05-20T06:14:23.409Z,92.10
2019-05-20T06:16:58.025Z,92.30
2019-05-20T06:19:32.817Z,91.30
2019-05-20T06:22:07.502Z,92.00
2019-05-20T06:24:42.246Z,91.90
2019-05-20T06:27:17.001Z,92.20
2019-05-20T06:29:51.782Z,92.70
2019-05-20T06:32:26.618Z,92.40
2019-05-20T06:35:01.688Z,92.80
2019-05-20T06:37:38.919Z,93.30
2019-05-20T06:40:14.116Z,93.50
2019-05-20T06:42:48.888Z,93.40
2019-05-20T06:45:23.703Z,94.00
2019-05-20T06:47:58.414Z,93.00
2019-05-20T06:50:52.402Z,93.10
2019-05-20T06:53:27.103Z,94.00
2019-05-20T06:56:01.895Z,94.20
2019-05-20T06:58:36.598Z,94.40
2019-05-20T07:01:11.414Z,94.70
2019-05-20T07:03:46.191Z,95.40
2019-05-20T07:06:21.052Z,95.30
2019-05-20T07:08:55.743Z,95.60
2019-05-20T07:11:30.553Z,95.90
2019-05-20T07:14:07.703Z,96.20
2019-05-20T07:16:41.675Z,95.80
2019-05-20T07:19:16.438Z,96.10
2019-05-20T07:21:51.247Z,95.10
2019-05-20T07:24:26.012Z,95.40
2019-05-20T07:27:00.806Z,95.30
2019-05-20T07:29:35.499Z,95.30
2019-05-20T07:32:10.246Z,95.40
2019-05-20T07:34:45.009Z,94.80
2019-05-20T07:37:20.239Z,94.40
2019-05-20T07:39:55.015Z,94.80
2019-05-20T07:42:30.898Z,95.10
2019-05-20T07:45:07.544Z,95.40
2019-05-20T07:47:42.465Z,95.30
2019-05-20T07:50:18.226Z,95.10
2019-05-20T07:52:53.121Z,94.50
2019-05-20T07:55:30.860Z,93.50
2019-05-20T07:58:08.002Z,93.60
2019-05-20T08:00:42.753Z,92.80
2019-05-20T08:03:17.549Z,91.50
2019-05-20T08:05:52.303Z,87.90
2019-05-20T08:08:27.106Z,88.20
2019-05-20T08:11:01.863Z,88.50
2019-05-20T08:13:36.651Z,86.70
2019-05-20T08:16:11.406Z,90.30
2019-05-20T08:18:46.195Z,83.30
2019-05-20T08:21:20.960Z,80.60
2019-05-20T08:23:55.760Z,81.10
2019-05-20T08:26:30.564Z,79.30
2019-05-20T08:29:05.414Z,81.40
2019-05-20T08:31:40.102Z,83.50
2019-05-20T08:34:14.902Z,84.20
2019-05-20T08:36:49.661Z,84.70
2019-05-20T08:39:24.315Z,85.70
2019-05-20T08:41:59.074Z,86.10
2019-05-20T08:44:33.935Z,81.10
2019-05-20T08:47:08.658Z,78.50
2019-05-20T08:49:44.006Z,77.20
2019-05-20T08:52:18.877Z,79.50
2019-05-20T08:54:53.604Z,79.60
2019-05-20T08:57:28.291Z,80.70
2019-05-20T09:00:03.549Z,77.50
2019-05-20T09:02:38.317Z,78.10
2019-05-20T09:05:13.231Z,72.40
2019-05-20T09:08:01.508Z,75.50
2019-05-20T09:10:24.340Z,76.20
2019-05-20T09:12:59.079Z,76.00
2019-05-20T09:15:33.801Z,76.40
2019-05-20T09:18:08.494Z,77.50
2019-05-20T09:20:43.438Z,77.80
2019-05-20T09:23:18.163Z,77.50
2019-05-20T09:25:52.884Z,76.70
2019-05-20T09:28:27.651Z,75.80
2019-05-20T09:31:02.399Z,75.10
2019-05-20T09:33:38.198Z,74.80
2019-05-20T09:36:15.904Z,74.30
2019-05-20T09:38:53.773Z,74.80
2019-05-20T09:41:28.546Z,73.70
2019-05-20T09:44:03.299Z,71.70
2019-05-20T09:46:38.025Z,73.80
2019-05-20T09:49:12.811Z,71.50
2019-05-20T09:51:48.134Z,72.60
2019-05-20T09:54:25.771Z,73.70
2019-05-20T09:57:00.557Z,73.00
2019-05-20T09:59:43.404Z,73.00
2019-05-20T10:02:11.706Z,74.70
2019-05-20T10:04:46.451Z,71.70
2019-05-20T10:07:21.244Z,71.70
2019-05-20T10:09:55.998Z,71.20
2019-05-20T10:12:45.533Z,70.10
2019-05-20T10:15:07.807Z,67.70
2019-05-20T10:17:42.595Z,69.90
2019-05-20T10:20:17.628Z,71.40
2019-05-20T10:22:52.379Z,70.60
2019-05-20T10:25:27.064Z,71.80
2019-05-20T10:28:01.870Z,71.10
2019-05-20T10:30:38.102Z,71.00
2019-05-20T10:33:12.898Z,68.30
2019-05-20T10:35:47.604Z,67.30
2019-05-20T10:38:22.257Z,67.40
2019-05-20T10:40:56.972Z,65.00
2019-05-20T10:43:31.675Z,67.80
2019-05-20T10:46:06.435Z,64.90
2019-05-20T10:48:41.272Z,64.10
2019-05-20T10:51:16.031Z,65.80
2019-05-20T10:53:50.767Z,68.20
2019-05-20T10:56:25.522Z,64.20
2019-05-20T10:59:00.226Z,66.20
2019-05-20T11:01:34.998Z,66.40
2019-05-20T11:04:09.782Z,65.80
2019-05-20T11:06:44.537Z,64.00
2019-05-20T11:09:19.337Z,65.10
2019-05-20T11:11:53.948Z,64.80
2019-05-20T11:14:28.751Z,65.70
2019-05-20T11:17:03.591Z,65.70
2019-05-20T11:19:38.374Z,65.90
2019-05-20T11:22:13.146Z,67.20
2019-05-20T11:24:47.980Z,67.50
2019-05-20T11:27:22.542Z,67.20
2019-05-20T11:29:57.330Z,65.90
2019-05-20T11:32:32.094Z,66.50
2019-05-20T11:35:10.225Z,70.60
2019-05-20T11:37:44.911Z,76.60
2019-05-20T11:40:19.787Z,78.70
2019-05-20T11:42:54.403Z,73.50
2019-05-20T11:45:29.134Z,70.00
2019-05-20T11:48:03.951Z,64.70
2019-05-20T11:50:38.739Z,65.20
2019-05-20T11:53:13.440Z,66.00
2019-05-20T11:55:48.171Z,69.30
2019-05-20T11:58:22.872Z,68.20
2019-05-20T12:00:57.648Z,69.00
2019-05-20T12:03:32.219Z,68.50
2019-05-20T12:06:07.097Z,70.20
2019-05-20T12:08:41.830Z,72.80
2019-05-20T12:11:16.650Z,73.70
2019-05-20T12:13:51.387Z,73.50
2019-05-20T12:16:26.071Z,68.00
2019-05-20T12:19:00.754Z,64.50
2019-05-20T12:21:35.553Z,63.10
2019-05-20T12:24:10.343Z,64.10
2019-05-20T12:26:45.074Z,61.60
2019-05-20T12:29:19.699Z,59.10
2019-05-20T12:31:54.407Z,57.60
2019-05-20T12:34:29.167Z,57.60
2019-05-20T12:37:03.982Z,57.10
2019-05-20T12:39:38.670Z,56.10
2019-05-20T12:42:13.571Z,55.40
2019-05-20T12:44:48.276Z,56.70
2019-05-20T12:47:23.793Z,57.10
2019-05-20T12:49:58.490Z,55.90
2019-05-20T12:52:33.280Z,54.90
2019-05-20T12:55:10.084Z,55.60
2019-05-20T12:57:44.956Z,56.30
2019-05-20T13:00:20.343Z,56.00
2019-05-20T13:02:55.060Z,57.00
2019-05-20T13:05:29.819Z,57.90
2019-05-20T13:08:05.273Z,58.10
2019-05-20T13:10:40.332Z,58.20
2019-05-20T13:13:15.128Z,59.00
2019-05-20T13:15:49.814Z,58.40
2019-05-20T13:18:24.534Z,57.40
2019-05-20T13:20:59.293Z,57.70
2019-05-20T13:23:34.810Z,58.50
2019-05-20T13:26:09.562Z,58.20
2019-05-20T13:28:44.371Z,57.10
2019-05-20T13:31:19.121Z,58.50
2019-05-20T13:33:53.844Z,59.30
2019-05-20T13:36:28.537Z,58.70
2019-05-20T13:39:03.919Z,56.10
2019-05-20T13:41:38.687Z,55.70
2019-05-20T13:44:13.438Z,56.50
2019-05-20T13:46:48.156Z,56.00
2019-05-20T13:49:23.048Z,55.00
2019-05-20T13:51:57.781Z,55.30
2019-05-20T13:54:32.567Z,55.70
2019-05-20T13:57:07.255Z,56.40
2019-05-20T13:59:41.989Z,58.10
2019-05-20T14:02:18.237Z,58.70
2019-05-20T14:04:52.996Z,58.80
2019-05-20T14:07:27.758Z,58.60
2019-05-20T14:10:02.561Z,59.00
2019-05-20T14:12:37.302Z,62.50
2019-05-20T14:15:12.262Z,70.70
2019-05-20T14:17:47.181Z,72.60
2019-05-20T14:20:22.021Z,76.10
2019-05-20T14:22:56.909Z,77.80
2019-05-20T14:25:31.714Z,80.30
2019-05-20T14:28:06.461Z,83.80
2019-05-20T14:30:41.262Z,84.20
2019-05-20T14:33:16.068Z,85.00
2019-05-20T14:35:51.351Z,84.80
2019-05-20T14:38:26.139Z,84.40
2019-05-20T14:41:00.869Z,85.10
2019-05-20T14:43:35.649Z,84.60
2019-05-20T14:46:10.434Z,84.80
2019-05-20T14:48:45.208Z,84.70
2019-05-20T14:51:19.999Z,87.40
2019-05-20T14:53:54.703Z,87.40
2019-05-20T14:56:29.498Z,84.80
2019-05-20T14:59:04.254Z,84.20
2019-05-20T15:01:39.072Z,81.30
2019-05-20T15:04:13.761Z,85.40
2019-05-20T15:06:48.538Z,83.10
2019-05-20T15:09:23.255Z,80.10
2019-05-20T15:11:57.952Z,84.00
2019-05-20T15:14:32.717Z,82.60
2019-05-20T15:17:07.518Z,80.00
2019-05-20T15:19:42.205Z,78.80
2019-05-20T15:22:16.997Z,79.40
2019-05-20T15:24:51.796Z,78.30
2019-05-20T15:27:26.582Z,77.80
2019-05-20T15:30:01.378Z,77.10
2019-05-20T15:32:36.133Z,80.00
2019-05-20T15:35:10.983Z,76.50
2019-05-20T15:37:45.709Z,76.60
2019-05-20T15:40:24.180Z,75.50
2019-05-20T15:42:56.879Z,75.40
2019-05-20T15:45:31.692Z,73.70
2019-05-20T15:48:06.443Z,73.10
2019-05-20T15:50:41.309Z,74.70
2019-05-20T15:53:16.046Z,73.90
2019-05-20T15:55:50.825Z,73.80
2019-05-20T15:58:25.539Z,74.90
2019-05-20T16:01:00.229Z,75.70
2019-05-20T16:03:35.014Z,75.00
2019-05-20T16:06:09.733Z,74.60
2019-05-20T16:08:44.581Z,74.20
2019-05-20T16:11:19.189Z,74.30
2019-05-20T16:13:53.916Z,72.90
2019-05-20T16:16:28.610Z,71.40
2019-05-20T16:19:04.249Z,71.60
2019-05-20T16:21:39.034Z,71.00
2019-05-20T16:24:13.818Z,72.30
2019-05-20T16:26:49.745Z,71.70
2019-05-20T16:29:24.457Z,74.40
2019-05-20T16:31:59.218Z,73.60
2019-05-20T16:34:33.947Z,72.90
2019-05-20T16:37:08.714Z,75.40
2019-05-20T16:39:43.503Z,75.70
2019-05-20T16:42:19.294Z,76.30
2019-05-20T16:44:54.062Z,77.00
2019-05-20T16:47:28.768Z,76.80
2019-05-20T16:50:04.986Z,77.40
2019-05-20T16:52:40.182Z,78.30
2019-05-20T16:55:15.285Z,79.10
2019-05-20T16:57:50.054Z,81.00
2019-05-20T17:00:31.563Z,82.70
2019-05-20T17:03:01.294Z,82.60
2019-05-20T17:05:36.156Z,83.90
2019-05-20T17:08:11.026Z,84.00
2019-05-20T17:10:46.026Z,85.80
2019-05-20T17:13:20.739Z,84.50
2019-05-20T17:15:55.522Z,84.10
2019-05-20T17:18:30.285Z,82.10
2019-05-20T17:21:05.090Z,82.40
2019-05-20T17:23:41.155Z,82.50
2019-05-20T17:26:15.946Z,82.20
2019-05-20T17:28:50.697Z,82.00
2019-05-20T17:31:26.720Z,81.80
2019-05-20T17:34:01.757Z,81.90
2019-05-20T17:36:36.503Z,82.10
2019-05-20T17:39:11.231Z,82.10
2019-05-20T17:41:46.027Z,82.30
2019-05-20T17:44:20.801Z,82.30
2019-05-20T17:46:56.709Z,83.00
2019-05-20T17:49:31.656Z,82.90
2019-05-20T17:52:06.444Z,83.20
2019-05-20T17:54:41.145Z,83.20
2019-05-20T17:57:17.379Z,83.80
2019-05-20T17:59:52.143Z,84.40
2019-05-20T18:02:26.834Z,84.60
2019-05-20T18:05:03.795Z,85.20
2019-05-20T18:07:40.870Z,85.10
2019-05-20T18:10:18.386Z,85.10
2019-05-20T18:12:53.209Z,85.40
2019-05-20T18:15:27.946Z,85.60
2019-05-20T18:18:02.558Z,86.20
2019-05-20T18:20:37.279Z,87.20
2019-05-20T18:23:12.126Z,88.50
2019-05-20T18:25:46.807Z,88.40
2019-05-20T18:28:21.481Z,88.90
2019-05-20T18:30:57.471Z,90.00
2019-05-20T18:33:32.276Z,88.60
2019-05-20T18:36:07.033Z,89.80
2019-05-20T18:38:41.757Z,89.90
2019-05-20T18:41:18.083Z,89.90
2019-05-20T18:43:52.883Z,90.00
2019-05-20T18:46:27.588Z,89.60
2019-05-20T18:49:02.277Z,89.80
2019-05-20T18:51:36.958Z,90.10
2019-05-20T18:54:11.756Z,90.30
2019-05-20T18:56:46.439Z,90.60
2019-05-20T18:59:22.708Z,90.70
2019-05-20T19:02:05.023Z,90.70
2019-05-20T19:04:33.669Z,90.40
2019-05-20T19:07:08.439Z,90.30
2019-05-20T19:09:43.840Z,90.20
2019-05-20T19:12:20.199Z,90.10
2019-05-20T19:14:55.678Z,90.50
2019-05-20T19:17:30.452Z,90.50
2019-05-20T19:20:06.240Z,91.00
2019-05-20T19:22:40.924Z,91.00
2019-05-20T19:25:15.599Z,91.30
2019-05-20T19:27:50.712Z,91.20
2019-05-20T19:30:27.258Z,91.30
2019-05-20T19:33:02.014Z,91.20
2019-05-20T19:35:36.735Z,91.10
2019-05-20T19:38:11.495Z,91.10
2019-05-20T19:40:46.308Z,91.00
2019-05-20T19:43:21.054Z,91.60
2019-05-20T19:45:55.895Z,91.60
2019-05-20T19:48:31.248Z,91.50
2019-05-20T19:51:05.984Z,91.30
2019-05-20T19:53:40.669Z,91.40
2019-05-20T19:56:15.469Z,91.20
2019-05-20T19:58:51.869Z,91.40
2019-05-20T20:01:28.362Z,91.50
2019-05-20T20:04:04.465Z,91.50
2019-05-20T20:06:39.260Z,91.70
2019-05-20T20:09:14.016Z,91.70
2019-05-20T20:11:48.767Z,91.80
2019-05-20T20:14:23.535Z,91.50
2019-05-20T20:16:58.290Z,91.30
2019-05-20T20:19:32.907Z,91.40
2019-05-20T20:22:07.622Z,91.50
2019-05-20T20:24:42.356Z,91.50
2019-05-20T20:27:17.112Z,91.30
2019-05-20T20:29:51.884Z,91.40
2019-05-20T20:32:37.605Z,90.90
2019-05-20T20:35:03.267Z,90.70
2019-05-20T20:37:39.806Z,90.60
2019-05-20T20:40:14.771Z,90.70
2019-05-20T20:42:49.484Z,90.90
2019-05-20T20:45:24.245Z,91.40
2019-05-20T20:48:01.717Z,91.40
2019-05-20T20:50:36.411Z,91.60
2019-05-20T20:53:11.190Z,91.80
2019-05-20T20:55:45.871Z,91.80
2019-05-20T20:58:20.609Z,91.80
2019-05-20T21:00:55.283Z,91.70
2019-05-20T21:03:30.002Z,91.60
2019-05-20T21:06:04.759Z,91.60
2019-05-20T21:08:39.542Z,91.50
2019-05-20T21:11:15.765Z,91.80
2019-05-20T21:13:50.412Z,92.00
2019-05-20T21:16:25.173Z,92.00
2019-05-20T21:18:59.830Z,91.90
2019-05-20T21:21:34.590Z,92.00
2019-05-20T21:24:09.372Z,91.80
2019-05-20T21:26:44.078Z,91.70
2019-05-20T21:29:18.802Z,91.80
2019-05-20T21:31:53.491Z,91.60
2019-05-20T21:34:28.206Z,91.60
2019-05-20T21:37:02.982Z,91.70
2019-05-20T21:39:37.646Z,91.90
2019-05-20T21:42:12.381Z,91.90
2019-05-20T21:44:47.098Z,91.70
2019-05-20T21:47:21.786Z,91.80
2019-05-20T21:49:56.506Z,92.00
2019-05-20T21:52:31.122Z,91.90
2019-05-20T21:55:07.485Z,92.00
2019-05-20T21:57:42.171Z,91.80
2019-05-20T22:00:19.095Z,91.60
2019-05-20T22:02:53.729Z,92.00
2019-05-20T22:05:28.520Z,91.90
2019-05-20T22:08:04.226Z,92.00
2019-05-20T22:10:39.264Z,92.20
2019-05-20T22:13:13.951Z,92.80
2019-05-20T22:15:48.814Z,92.60
2019-05-20T22:18:23.663Z,92.70
2019-05-20T22:20:58.426Z,93.20
2019-05-20T22:23:34.750Z,93.50
2019-05-20T22:26:09.475Z,94.10
2019-05-20T22:28:44.078Z,94.70
2019-05-20T22:31:18.727Z,94.90
2019-05-20T22:33:53.487Z,95.10
2019-05-20T22:36:28.210Z,95.10
2019-05-20T22:39:04.010Z,95.10
2019-05-20T22:41:38.730Z,95.20
2019-05-20T22:44:13.439Z,94.70
2019-05-20T22:46:48.223Z,94.40
2019-05-20T22:49:22.861Z,94.00
2019-05-20T22:51:57.655Z,93.60
2019-05-20T22:54:32.413Z,92.60
2019-05-20T22:57:07.221Z,93.00
2019-05-20T22:59:41.891Z,93.40
2019-05-20T23:02:16.681Z,92.90
2019-05-20T23:04:51.931Z,92.70
2019-05-20T23:07:26.647Z,92.40
2019-05-20T23:10:01.395Z,93.10
2019-05-20T23:12:36.279Z,93.30
2019-05-20T23:15:11.109Z,93.90
2019-05-20T23:17:45.768Z,94.70
2019-05-20T23:20:20.518Z,95.20
2019-05-20T23:22:55.254Z,95.50
2019-05-20T23:25:29.938Z,95.70
2019-05-20T23:28:04.679Z,95.60
2019-05-20T23:30:39.398Z,95.40
2019-05-20T23:33:14.182Z,95.20
2019-05-20T23:35:48.877Z,95.30
2019-05-20T23:38:23.591Z,95.50
2019-05-20T23:40:58.374Z,95.70
2019-05-20T23:43:33.091Z,96.00
2019-05-20T23:46:07.780Z,96.10
2019-05-20T23:48:42.497Z,96.30
2019-05-20T23:51:17.114Z,95.90
2019-05-20T23:53:51.823Z,96.10
2019-05-20T23:56:26.502Z,96.10
2019-05-20T23:59:01.295Z,96.30
